Time;durP1;ratioP1;P1;durP2;ratioP2;P2;SDS_P1;SDS_P2;PMS_P1;PMS_P2;Temp;Humidity;BMP_temperature;BMP_pressure;BME280_temperature;BME280_humidity;BME280_pressure;Samples;Min_cycle;Max_cycle;Signal;HPM_P1;HPM_P2
2023/03/20 00:00:45;;;;;;;4.55;1.10;;;;;;;10.41;100.00;101019.72;5047981;28;20048;-53
2023/03/20 00:03:11;;;;;;;7.70;1.27;;;;;;;10.42;100.00;101025.84;5044649;28;20482;-53
2023/03/20 00:05:37;;;;;;;3.38;0.70;;;;;;;10.40;100.00;101023.38;5045823;28;20128;-52
2023/03/20 00:08:03;;;;;;;3.03;0.93;;;;;;;10.44;100.00;101023.84;5044165;28;20029;-49
2023/03/20 00:10:34;;;;;;;11.27;2.22;;;;;;;10.42;100.00;101029.31;5045447;28;20031;-52
2023/03/20 00:13:00;;;;;;;4.10;0.60;;;;;;;10.43;100.00;101027.50;5041074;28;20296;-49
2023/03/20 00:15:33;;;;;;;1.30;0.68;;;;;;;10.45;100.00;101013.06;5046254;28;20030;-53
2023/03/20 00:17:59;;;;;;;1.67;0.35;;;;;;;10.44;100.00;101014.06;5046125;28;20130;-50
2023/03/20 00:20:24;;;;;;;3.20;0.35;;;;;;;10.47;100.00;101026.13;5046882;28;20383;-51
2023/03/20 00:22:50;;;;;;;5.82;0.95;;;;;;;10.44;100.00;101007.94;5048048;28;20066;-54
2023/03/20 00:25:20;;;;;;;7.95;1.02;;;;;;;10.46;100.00;101009.41;5047069;28;20029;-54
2023/03/20 00:27:45;;;;;;;4.25;1.25;;;;;;;10.52;100.00;101013.16;5044376;28;20035;-52
2023/03/20 00:30:27;;;;;;;3.03;0.30;;;;;;;10.52;100.00;101018.47;5047903;28;20024;-54
2023/03/20 00:32:53;;;;;;;1.80;0.10;;;;;;;10.59;100.00;101015.94;5049247;28;20036;-55
2023/03/20 00:35:24;;;;;;;8.10;1.38;;;;;;;10.49;100.00;101013.53;5044677;28;20047;-50
2023/03/20 00:37:51;;;;;;;4.80;1.38;;;;;;;10.55;100.00;101014.66;5046555;28;20416;-55
2023/03/20 00:40:17;;;;;;;8.38;1.58;;;;;;;10.56;100.00;101011.81;5037986;28;20037;-53
2023/03/20 00:42:48;;;;;;;6.70;1.65;;;;;;;10.51;100.00;101019.50;5039418;28;20024;-54
2023/03/20 00:45:17;;;;;;;7.93;0.93;;;;;;;10.45;100.00;101021.03;5044112;28;20032;-54
2023/03/20 00:47:43;;;;;;;7.38;0.95;;;;;;;10.47;100.00;101012.88;5044338;28;20051;-54
2023/03/20 00:50:35;;;;;;;18.80;1.02;;;;;;;10.52;100.00;101015.81;5036758;28;20133;-55
2023/03/20 00:53:00;;;;;;;4.00;1.85;;;;;;;10.54;100.00;101005.06;5048590;28;20133;-52
2023/03/20 00:55:28;;;;;;;6.97;1.00;;;;;;;10.49;100.00;101008.22;5040651;28;20062;-51
2023/03/20 00:57:59;;;;;;;8.55;0.88;;;;;;;10.52;100.00;101012.34;5047594;28;20070;-56
2023/03/20 01:00:41;;;;;;;4.28;1.10;;;;;;;10.37;100.00;101005.16;5041773;28;20037;-50
2023/03/20 01:03:18;;;;;;;6.03;0.63;;;;;;;10.42;100.00;101004.63;5042833;28;20029;-54
2023/03/20 01:05:44;;;;;;;8.48;1.92;;;;;;;10.39;100.00;101008.47;5044615;28;20029;-51
2023/03/20 01:08:18;;;;;;;5.50;0.52;;;;;;;10.38;100.00;101001.53;5051681;28;20025;-53
2023/03/20 01:10:45;;;;;;;2.10;0.68;;;;;;;10.43;100.00;101001.00;5041668;28;20371;-51
2023/03/20 01:13:22;;;;;;;4.35;0.40;;;;;;;10.42;100.00;101009.94;5047999;28;20120;-52
2023/03/20 01:15:48;;;;;;;6.43;1.67;;;;;;;10.50;100.00;101015.16;5046972;28;20440;-49
2023/03/20 01:18:16;;;;;;;13.55;1.13;;;;;;;10.48;100.00;101002.09;5046360;28;20434;-51
2023/03/20 01:20:42;;;;;;;8.80;0.50;;;;;;;10.44;100.00;101008.75;5050594;28;20064;-50
2023/03/20 01:23:07;;;;;;;6.65;0.82;;;;;;;10.41;100.00;101006.47;5050047;28;20041;-48
2023/03/20 01:25:33;;;;;;;2.63;0.88;;;;;;;10.38;100.00;101001.53;5048832;28;20119;-49
2023/03/20 01:27:59;;;;;;;0.68;0.57;;;;;;;10.37;100.00;100999.03;5047660;28;20025;-52
2023/03/20 01:30:31;;;;;;;6.10;1.23;;;;;;;10.34;100.00;100999.41;5041599;28;20033;-51
2023/03/20 01:32:58;;;;;;;8.55;0.63;;;;;;;10.34;100.00;100996.75;5049438;28;20035;-50
2023/03/20 01:35:26;;;;;;;5.03;1.27;;;;;;;10.27;100.00;101001.88;5045935;28;20036;-51
2023/03/20 01:37:53;;;;;;;4.70;1.10;;;;;;;10.33;100.00;100995.09;5045285;28;20091;-50
2023/03/20 01:40:26;;;;;;;4.20;0.57;;;;;;;10.25;100.00;100986.19;5045728;28;20065;-51
2023/03/20 01:42:52;;;;;;;5.75;1.23;;;;;;;10.21;100.00;100995.47;5050792;28;20527;-53
2023/03/20 01:45:23;;;;;;;4.72;0.70;;;;;;;10.24;100.00;100994.28;5043906;28;20041;-49
2023/03/20 01:47:50;;;;;;;4.20;1.08;;;;;;;10.26;100.00;100987.81;5042308;28;20501;-51
2023/03/20 01:50:18;;;;;;;8.13;0.52;;;;;;;10.23;100.00;100984.69;5042264;28;20029;-53
2023/03/20 01:52:45;;;;;;;2.88;0.40;;;;;;;10.28;100.00;100986.84;5047956;28;20029;-54
2023/03/20 01:55:10;;;;;;;8.98;1.13;;;;;;;10.35;100.00;100983.31;5045231;28;20530;-52
2023/03/20 01:57:37;;;;;;;6.22;1.50;;;;;;;10.35;100.00;100982.47;5050655;28;20060;-51
2023/03/20 02:00:08;;;;;;;3.67;0.40;;;;;;;10.35;100.00;100978.03;5044750;28;20033;-51
2023/03/20 02:02:33;;;;;;;5.18;0.73;;;;;;;10.38;100.00;100975.00;5046398;28;20033;-52
2023/03/20 02:05:03;;;;;;;5.80;0.40;;;;;;;10.28;100.00;100963.81;5048482;28;20493;-52
2023/03/20 02:07:31;;;;;;;3.00;1.08;;;;;;;10.39;100.00;100966.03;5042901;28;20083;-52
2023/03/20 02:09:57;;;;;;;4.15;1.73;;;;;;;10.41;100.00;100952.63;5053206;28;20025;-53
2023/03/20 02:12:22;;;;;;;1.20;0.32;;;;;;;10.32;100.00;100948.38;5052891;28;20036;-53
2023/03/20 02:14:49;;;;;;;4.50;0.65;;;;;;;10.28;100.00;100947.91;5054985;28;20547;-50
2023/03/20 02:17:15;;;;;;;5.82;0.40;;;;;;;10.25;100.00;100945.59;5050602;28;20049;-53
2023/03/20 02:20:08;;;;;;;2.92;0.45;;;;;;;9.68;100.00;100945.94;5046427;28;20084;-52
2023/03/20 02:23:11;;;;;;;5.00;0.30;;;;;;;9.89;100.00;100948.00;5042511;28;20497;-50
2023/03/20 02:26:04;;;;;;;3.70;0.60;;;;;;;9.99;100.00;100953.88;5051548;28;20435;-50
2023/03/20 02:29:03;;;;;;;2.97;0.50;;;;;;;10.01;100.00;100938.63;5048099;28;20037;-51
2023/03/20 02:31:47;;;;;;;7.80;1.42;;;;;;;10.02;100.00;100937.66;5045223;28;20111;-51
2023/03/20 02:34:36;;;;;;;3.08;0.60;;;;;;;9.92;100.00;100929.09;5047559;28;20057;-50
2023/03/20 02:37:37;;;;;;;8.55;1.02;;;;;;;9.96;100.00;100930.38;5049076;28;20456;-53
2023/03/20 02:40:33;;;;;;;4.95;0.90;;;;;;;9.89;100.00;100921.53;5044318;28;20255;-48
2023/03/20 02:43:28;;;;;;;2.13;0.80;;;;;;;9.85;100.00;100923.66;5048995;28;20043;-49
2023/03/20 02:46:10;;;;;;;3.40;0.75;;;;;;;9.84;100.00;100914.09;5036108;28;20041;-53
2023/03/20 02:49:15;;;;;;;1.75;0.10;;;;;;;9.94;100.00;100916.50;5044730;28;20029;-50
2023/03/20 02:51:55;;;;;;;4.18;0.88;;;;;;;9.93;100.00;100912.19;5047839;28;20033;-52
2023/03/20 02:54:44;;;;;;;1.98;0.38;;;;;;;9.98;100.00;100904.56;5044297;28;20033;-50
2023/03/20 02:57:23;;;;;;;3.70;0.57;;;;;;;9.97;100.00;100906.38;5047721;28;20037;-52
2023/03/20 03:00:01;;;;;;;2.15;0.73;;;;;;;9.97;100.00;100908.22;5046361;28;20153;-51
2023/03/20 03:02:37;;;;;;;11.20;1.75;;;;;;;9.98;100.00;100915.16;5050613;28;20025;-50
2023/03/20 03:05:10;;;;;;;4.82;0.63;;;;;;;10.01;100.00;100909.50;5043882;28;20032;-52
2023/03/20 03:07:40;;;;;;;13.68;2.58;;;;;;;10.04;100.00;100909.97;5042951;28;20041;-52
2023/03/20 03:10:14;;;;;;;5.95;0.60;;;;;;;10.04;100.00;100907.34;5048606;28;20161;-52
2023/03/20 03:12:44;;;;;;;3.85;0.55;;;;;;;10.07;100.00;100907.94;5049754;28;20381;-51
2023/03/20 03:15:27;;;;;;;7.22;0.75;;;;;;;10.05;100.00;100906.31;5048120;28;20505;-53
2023/03/20 03:17:57;;;;;;;3.78;0.50;;;;;;;10.05;100.00;100905.50;5042226;28;20472;-55
2023/03/20 03:20:28;;;;;;;2.40;0.73;;;;;;;10.03;100.00;100907.50;5050795;28;20449;-52
2023/03/20 03:22:54;;;;;;;8.68;2.85;;;;;;;10.11;100.00;100903.97;5046468;28;20037;-52
2023/03/20 03:25:23;;;;;;;3.30;0.47;;;;;;;9.73;100.00;100907.38;5052771;28;20037;-53
2023/03/20 03:27:58;;;;;;;7.78;1.75;;;;;;;10.01;100.00;100906.84;5043686;28;20037;-55
2023/03/20 03:30:28;;;;;;;4.80;0.75;;;;;;;10.06;100.00;100901.84;5036968;28;20059;-49
2023/03/20 03:33:14;;;;;;;8.40;0.88;;;;;;;10.17;100.00;100898.78;5044101;28;20482;-52
2023/03/20 03:35:40;;;;;;;4.85;0.32;;;;;;;10.22;100.00;100895.56;5046894;28;20059;-54
2023/03/20 03:38:38;;;;;;;5.35;1.17;;;;;;;10.18;100.00;100889.81;5043659;28;20091;-52
2023/03/20 03:41:15;;;;;;;7.35;0.47;;;;;;;10.16;100.00;100891.81;5036915;28;20592;-52
2023/03/20 03:44:18;;;;;;;9.05;1.02;;;;;;;10.21;100.00;100884.16;5050376;28;20037;-52
2023/03/20 03:46:55;;;;;;;4.88;0.77;;;;;;;10.18;100.00;100881.88;5050829;28;20029;-52
2023/03/20 03:49:27;;;;;;;2.22;0.40;;;;;;;10.21;100.00;100881.50;5042083;28;20017;-53
2023/03/20 03:51:58;;;;;;;6.28;2.25;;;;;;;10.23;100.00;100884.00;5035114;28;20057;-51
2023/03/20 03:54:31;;;;;;;6.20;0.57;;;;;;;10.26;100.00;100881.81;5044578;28;20032;-52
2023/03/20 03:56:57;;;;;;;2.95;0.47;;;;;;;10.23;100.00;100871.56;5046679;28;20038;-49
2023/03/20 03:59:33;;;;;;;8.05;1.25;;;;;;;10.27;100.00;100874.66;5042934;28;20028;-51
2023/03/20 04:02:02;;;;;;;6.35;1.30;;;;;;;10.29;100.00;100875.34;5043567;28;20128;-53
2023/03/20 04:04:30;;;;;;;7.93;1.38;;;;;;;10.28;100.00;100868.41;5046560;28;20108;-52
2023/03/20 04:06:55;;;;;;;7.82;2.30;;;;;;;10.26;100.00;100868.56;5045457;28;20029;-52
2023/03/20 04:09:21;;;;;;;8.27;1.15;;;;;;;10.26;100.00;100863.25;5047498;28;20370;-52
2023/03/20 04:11:49;;;;;;;10.25;0.40;;;;;;;10.30;100.00;100865.56;5046303;28;20055;-53
2023/03/20 04:14:15;;;;;;;1.55;0.43;;;;;;;10.36;100.00;100872.81;5053188;28;20032;-53
2023/03/20 04:16:41;;;;;;;12.05;1.13;;;;;;;10.40;100.00;100876.75;5048709;28;20377;-49
2023/03/20 04:19:06;;;;;;;5.18;0.55;;;;;;;10.37;100.00;100871.81;5052158;28;20049;-51
2023/03/20 04:21:32;;;;;;;2.88;0.70;;;;;;;10.31;100.00;100878.66;5044489;28;20031;-49
2023/03/20 04:23:57;;;;;;;9.35;1.55;;;;;;;10.24;100.00;100872.38;5050724;28;20116;-49
2023/03/20 04:26:23;;;;;;;1.52;0.68;;;;;;;10.24;100.00;100877.69;5050913;28;20131;-54
2023/03/20 04:28:48;;;;;;;7.13;2.15;;;;;;;10.15;100.00;100869.00;5045640;28;20488;-50
2023/03/20 04:31:14;;;;;;;3.90;0.60;;;;;;;10.13;100.00;100870.16;5039633;28;20087;-52
2023/03/20 04:33:39;;;;;;;11.82;0.60;;;;;;;10.07;100.00;100860.25;5039305;28;21118;-53
2023/03/20 04:36:05;;;;;;;14.45;1.70;;;;;;;10.08;100.00;100856.63;5046625;28;20037;-49
2023/03/20 04:38:31;;;;;;;4.82;0.50;;;;;;;10.13;100.00;100863.03;5034787;28;20029;-50
2023/03/20 04:40:56;;;;;;;6.88;1.17;;;;;;;10.13;100.00;100857.75;5038264;28;20425;-50
2023/03/20 04:43:21;;;;;;;4.25;0.60;;;;;;;10.19;100.00;100853.53;5042125;28;20029;-49
2023/03/20 04:45:47;;;;;;;10.98;1.17;;;;;;;10.12;100.00;100842.00;5039459;28;20037;-54
2023/03/20 04:48:13;;;;;;;5.60;0.85;;;;;;;10.10;100.00;100838.75;5051938;28;20040;-53
2023/03/20 04:50:38;;;;;;;3.60;1.55;;;;;;;10.07;100.00;100839.91;5047830;28;20043;-51
2023/03/20 04:53:04;;;;;;;5.70;0.68;;;;;;;10.10;100.00;100842.19;5045350;28;20304;-53
2023/03/20 04:55:29;;;;;;;3.33;1.42;;;;;;;10.05;100.00;100847.22;5045649;28;20413;-50
2023/03/20 04:57:55;;;;;;;2.63;0.52;;;;;;;10.00;100.00;100854.88;5053261;28;20037;-52
2023/03/20 05:00:21;;;;;;;11.68;1.58;;;;;;;10.05;100.00;100852.50;5049079;28;20072;-50
2023/03/20 05:02:47;;;;;;;10.10;0.75;;;;;;;10.09;100.00;100848.47;5048033;28;20086;-48
2023/03/20 05:05:12;;;;;;;10.07;1.85;;;;;;;10.02;100.00;100848.41;5042713;28;20492;-52
2023/03/20 05:07:38;;;;;;;7.63;1.55;;;;;;;10.10;100.00;100847.50;5046613;28;20033;-49
2023/03/20 05:10:04;;;;;;;16.55;0.73;;;;;;;10.14;100.00;100845.31;5042650;28;20124;-51
2023/03/20 05:12:30;;;;;;;9.80;1.70;;;;;;;10.08;100.00;100843.38;5036115;28;20112;-49
2023/03/20 05:14:55;;;;;;;2.80;1.00;;;;;;;10.05;100.00;100848.03;5041951;28;20105;-52
2023/03/20 05:17:22;;;;;;;8.90;2.42;;;;;;;10.00;100.00;100845.09;5049712;28;20025;-55
2023/03/20 05:19:48;;;;;;;8.40;1.27;;;;;;;10.02;100.00;100847.56;5041543;28;20510;-52
2023/03/20 05:22:15;;;;;;;6.22;0.88;;;;;;;10.00;100.00;100844.28;5045736;28;20033;-50
2023/03/20 05:24:40;;;;;;;12.60;1.30;;;;;;;10.04;100.00;100842.91;5047730;28;20492;-53
2023/03/20 05:27:06;;;;;;;12.48;3.03;;;;;;;10.06;100.00;100843.56;5050577;28;20025;-50
2023/03/20 05:29:31;;;;;;;5.13;1.35;;;;;;;10.05;100.00;100847.22;5047294;28;20036;-55
2023/03/20 05:31:56;;;;;;;10.32;1.15;;;;;;;10.09;100.00;100842.38;5047935;28;20025;-51
2023/03/20 05:34:22;;;;;;;5.82;1.55;;;;;;;10.13;100.00;100835.72;5038538;28;20125;-49
2023/03/20 05:36:47;;;;;;;11.88;1.42;;;;;;;10.15;100.00;100842.50;5049905;28;20036;-51
2023/03/20 05:39:13;;;;;;;7.18;2.15;;;;;;;10.22;100.00;100842.56;5043676;28;20029;-52
2023/03/20 05:41:38;;;;;;;5.35;0.57;;;;;;;10.26;100.00;100838.56;5047268;28;20037;-54
2023/03/20 05:44:04;;;;;;;7.47;1.38;;;;;;;10.29;100.00;100837.44;5045169;28;20060;-52
2023/03/20 05:46:29;;;;;;;7.72;0.70;;;;;;;10.29;100.00;100848.84;5048911;28;20116;-50
2023/03/20 05:48:55;;;;;;;11.25;2.42;;;;;;;10.25;100.00;100851.00;5059101;28;20432;-52
2023/03/20 05:51:20;;;;;;;11.15;2.15;;;;;;;10.34;100.00;100850.97;5051421;28;20429;-52
2023/03/20 05:53:46;;;;;;;13.80;1.52;;;;;;;10.35;100.00;100847.28;5051659;28;20020;-53
2023/03/20 05:56:11;;;;;;;5.00;0.93;;;;;;;10.42;100.00;100848.22;5049753;28;20036;-53
2023/03/20 05:58:36;;;;;;;8.25;1.90;;;;;;;10.38;100.00;100853.06;5060362;28;20029;-50
2023/03/20 06:01:02;;;;;;;8.48;1.73;;;;;;;10.43;100.00;100860.50;5055811;28;20035;-53
2023/03/20 06:03:27;;;;;;;8.13;1.15;;;;;;;10.40;100.00;100866.97;5049620;28;20033;-52
2023/03/20 06:05:53;;;;;;;18.00;2.20;;;;;;;10.47;100.00;100875.03;5048824;28;20056;-53
2023/03/20 06:08:18;;;;;;;8.20;2.35;;;;;;;10.49;100.00;100859.75;5042471;28;20108;-54
2023/03/20 06:10:44;;;;;;;8.13;0.80;;;;;;;10.47;100.00;100861.75;5045301;28;20037;-49
2023/03/20 06:13:09;;;;;;;16.48;2.25;;;;;;;10.57;100.00;100862.31;5054061;28;20033;-51
2023/03/20 06:15:35;;;;;;;2.72;1.13;;;;;;;10.50;100.00;100860.56;5053215;28;20037;-53
2023/03/20 06:18:00;;;;;;;3.47;1.38;;;;;;;10.41;100.00;100857.19;5045539;28;20088;-54
2023/03/20 06:20:25;;;;;;;4.78;1.73;;;;;;;10.51;100.00;100870.16;5047891;28;20071;-50
2023/03/20 06:22:51;;;;;;;5.78;1.60;;;;;;;10.49;100.00;100870.38;5050541;28;20067;-54
2023/03/20 06:25:17;;;;;;;8.93;0.80;;;;;;;10.51;100.00;100867.50;5052291;28;20302;-49
2023/03/20 06:27:43;;;;;;;12.30;3.60;;;;;;;10.50;100.00;100874.66;5048872;28;20032;-51
2023/03/20 06:30:09;;;;;;;17.20;1.38;;;;;;;10.42;100.00;100890.66;5045345;28;20029;-53
2023/03/20 06:32:34;;;;;;;4.72;1.10;;;;;;;10.53;100.00;100884.06;5052059;28;20021;-57
2023/03/20 06:35:00;;;;;;;6.38;1.13;;;;;;;10.63;100.00;100888.09;5042523;28;20362;-55
2023/03/20 06:37:25;;;;;;;10.73;0.95;;;;;;;10.58;100.00;100885.16;5044100;28;20107;-53
2023/03/20 06:39:50;;;;;;;11.15;1.33;;;;;;;10.61;100.00;100886.63;5050706;28;20032;-54
2023/03/20 06:42:16;;;;;;;6.40;0.80;;;;;;;10.60;100.00;100890.31;5047328;28;20025;-54
2023/03/20 06:44:42;;;;;;;3.83;1.20;;;;;;;10.47;100.00;100889.09;5049459;28;20025;-52
2023/03/20 06:47:07;;;;;;;10.88;1.23;;;;;;;10.44;100.00;100884.16;5051298;28;20086;-54
2023/03/20 06:49:33;;;;;;;12.25;1.25;;;;;;;10.43;100.00;100874.56;5049866;28;20028;-50
2023/03/20 06:51:58;;;;;;;7.57;1.63;;;;;;;10.40;100.00;100874.94;5051573;28;20037;-54
2023/03/20 06:54:24;;;;;;;11.07;3.53;;;;;;;10.34;100.00;100872.97;5053861;28;20122;-54
2023/03/20 06:56:50;;;;;;;5.82;1.75;;;;;;;10.30;100.00;100877.00;5045293;28;20033;-50
2023/03/20 06:59:15;;;;;;;16.40;2.50;;;;;;;10.15;100.00;100895.47;5044727;28;20470;-52
2023/03/20 07:01:41;;;;;;;12.15;1.83;;;;;;;10.00;100.00;100892.78;5037983;28;20021;-55
2023/03/20 07:04:06;;;;;;;10.18;1.55;;;;;;;10.18;100.00;100891.66;5041815;28;20029;-54
2023/03/20 07:06:32;;;;;;;6.75;1.40;;;;;;;9.93;100.00;100891.00;5041952;28;20104;-54
2023/03/20 07:08:58;;;;;;;3.50;1.38;;;;;;;9.96;100.00;100888.81;5042125;28;20037;-53
2023/03/20 07:11:23;;;;;;;3.47;0.85;;;;;;;10.50;100.00;100889.75;5044514;28;20056;-54
2023/03/20 07:13:48;;;;;;;16.75;3.50;;;;;;;10.80;100.00;100880.81;5042874;28;20029;-53
2023/03/20 07:16:14;;;;;;;9.40;2.08;;;;;;;10.99;100.00;100882.09;5043135;28;20053;-53
2023/03/20 07:18:39;;;;;;;5.57;1.80;;;;;;;11.07;100.00;100887.28;5047420;28;20088;-55
2023/03/20 07:21:06;;;;;;;7.45;2.05;;;;;;;10.93;100.00;100888.13;5047875;28;20025;-56
2023/03/20 07:23:35;;;;;;;5.50;4.05;;;;;;;10.98;100.00;100885.75;5047931;28;20497;-55
2023/03/20 07:26:02;;;;;;;4.95;1.13;;;;;;;11.04;100.00;100884.19;5045663;28;20023;-50
2023/03/20 07:28:27;;;;;;;4.78;1.30;;;;;;;11.13;100.00;100885.75;5049789;28;20374;-54
2023/03/20 07:30:54;;;;;;;6.63;1.10;;;;;;;11.16;100.00;100884.56;5044034;28;20037;-53
2023/03/20 07:33:19;;;;;;;12.85;2.97;;;;;;;11.19;100.00;100889.50;5024277;28;20120;-54
2023/03/20 07:35:45;;;;;;;10.00;1.63;;;;;;;11.12;100.00;100884.91;5048136;28;20113;-56
2023/03/20 07:38:10;;;;;;;8.15;1.98;;;;;;;11.13;100.00;100883.91;5040555;28;20071;-59
2023/03/20 07:40:36;;;;;;;12.75;3.47;;;;;;;11.29;100.00;100874.91;5043006;28;20063;-53
2023/03/20 07:43:01;;;;;;;5.70;2.47;;;;;;;11.32;100.00;100881.69;5041899;28;20029;-54
2023/03/20 07:45:26;;;;;;;8.10;2.03;;;;;;;11.32;100.00;100881.69;5042174;28;20493;-55
2023/03/20 07:47:52;;;;;;;1.73;1.13;;;;;;;11.28;100.00;100886.56;5045147;28;20283;-56
2023/03/20 07:50:17;;;;;;;13.32;4.82;;;;;;;11.42;100.00;100884.88;5043433;28;20116;-55
2023/03/20 07:52:50;;;;;;;3.33;1.25;;;;;;;11.41;100.00;100877.94;5045876;28;20021;-56
2023/03/20 07:55:16;;;;;;;7.07;2.17;;;;;;;11.42;100.00;100876.91;5043949;28;20021;-54
2023/03/20 07:57:42;;;;;;;3.08;0.98;;;;;;;11.61;100.00;100872.00;5058215;28;20043;-52
2023/03/20 08:00:08;;;;;;;2.85;1.00;;;;;;;11.54;100.00;100875.41;5052845;28;20485;-51
2023/03/20 08:02:33;;;;;;;3.58;1.10;;;;;;;11.72;100.00;100884.78;5050946;28;20040;-56
2023/03/20 08:04:59;;;;;;;4.32;1.65;;;;;;;11.78;100.00;100870.75;5044866;28;20466;-56
2023/03/20 08:07:24;;;;;;;3.58;1.40;;;;;;;11.72;100.00;100877.66;5039851;28;20525;-54
2023/03/20 08:09:49;;;;;;;4.43;1.65;;;;;;;11.79;100.00;100883.00;5048814;28;20354;-56
2023/03/20 08:12:15;;;;;;;5.30;1.45;;;;;;;11.78;100.00;100876.06;5048248;28;20029;-52
2023/03/20 08:14:42;;;;;;;8.43;2.33;;;;;;;11.79;100.00;100880.34;5051011;28;20037;-56
2023/03/20 08:17:07;;;;;;;5.18;1.85;;;;;;;11.73;100.00;100881.94;5043489;28;20108;-52
2023/03/20 08:19:33;;;;;;;5.43;1.40;;;;;;;11.80;100.00;100884.69;5037213;28;20454;-55
2023/03/20 08:21:58;;;;;;;7.28;2.85;;;;;;;11.85;100.00;100884.09;5040507;28;20057;-52
2023/03/20 08:24:24;;;;;;;4.68;2.25;;;;;;;11.68;100.00;100880.88;5046083;28;20398;-54
2023/03/20 08:26:49;;;;;;;2.53;1.42;;;;;;;11.68;100.00;100886.19;5048084;28;20185;-51
2023/03/20 08:29:17;;;;;;;4.20;2.75;;;;;;;11.69;100.00;100895.78;5053354;28;20383;-53
2023/03/20 08:31:43;;;;;;;3.95;2.20;;;;;;;11.68;100.00;100886.19;5046545;28;20029;-57
2023/03/20 08:34:08;;;;;;;3.88;1.52;;;;;;;11.82;100.00;100887.94;5054691;28;20066;-53
2023/03/20 08:36:34;;;;;;;5.32;1.50;;;;;;;11.93;100.00;100882.19;5044032;28;20907;-57
2023/03/20 08:38:59;;;;;;;4.00;2.05;;;;;;;12.04;100.00;100875.53;5048861;28;20029;-52
2023/03/20 08:41:24;;;;;;;3.60;1.95;;;;;;;12.17;100.00;100874.81;5051375;28;20036;-54
2023/03/20 08:43:50;;;;;;;3.30;2.08;;;;;;;12.25;100.00;100880.00;5046927;28;20250;-53
2023/03/20 08:46:15;;;;;;;3.40;1.02;;;;;;;12.45;100.00;100872.19;5048754;28;20025;-52
2023/03/20 08:48:40;;;;;;;1.67;0.98;;;;;;;12.61;100.00;100873.72;5035255;28;20056;-56
2023/03/20 08:51:07;;;;;;;1.75;1.20;;;;;;;12.66;100.00;100879.28;5020593;28;20036;-55
2023/03/20 08:53:32;;;;;;;3.47;1.30;;;;;;;12.77;100.00;100873.41;5034259;28;20078;-52
2023/03/20 08:55:58;;;;;;;2.05;1.67;;;;;;;12.95;100.00;100882.72;5035797;28;20037;-57
2023/03/20 08:58:23;;;;;;;3.45;0.90;;;;;;;12.92;100.00;100878.59;5034456;28;20164;-55
2023/03/20 09:00:49;;;;;;;3.88;1.00;;;;;;;12.93;100.00;100879.41;5033285;28;20076;-53
2023/03/20 09:03:16;;;;;;;0.47;0.47;;;;;;;12.95;100.00;100883.53;5034426;28;20021;-56
2023/03/20 09:05:51;;;;;;;2.33;0.70;;;;;;;12.89;100.00;100879.00;5033980;28;20028;-57
2023/03/20 09:08:16;;;;;;;0.80;0.60;;;;;;;12.94;100.00;100879.25;5038232;28;20059;-58
2023/03/20 09:10:41;;;;;;;1.15;0.38;;;;;;;13.01;100.00;100880.09;5043206;28;20061;-56
2023/03/20 09:13:07;;;;;;;2.70;0.73;;;;;;;13.00;100.00;100882.94;5038777;28;20486;-55
2023/03/20 09:15:34;;;;;;;1.48;0.47;;;;;;;12.97;100.00;100875.38;5041416;28;20108;-53
2023/03/20 09:18:00;;;;;;;1.05;0.40;;;;;;;12.92;100.00;100883.13;5038285;28;20037;-57
2023/03/20 09:20:25;;;;;;;1.13;0.65;;;;;;;12.96;100.00;100876.38;5038733;28;20063;-52
2023/03/20 09:22:50;;;;;;;6.07;1.23;;;;;;;13.02;100.00;100872.94;5044716;28;20119;-57
2023/03/20 09:25:16;;;;;;;1.02;0.55;;;;;;;12.81;100.00;100877.31;5045691;28;20054;-57
2023/03/20 09:27:41;;;;;;;2.78;1.13;;;;;;;12.88;100.00;100886.19;5044638;28;20036;-56
2023/03/20 09:30:09;;;;;;;2.05;0.90;;;;;;;12.91;100.00;100882.31;5041206;28;20130;-55
2023/03/20 09:32:34;;;;;;;2.70;0.65;;;;;;;13.05;100.00;100880.50;5046542;28;20040;-55
2023/03/20 09:35:00;;;;;;;2.00;0.68;;;;;;;12.98;100.00;100884.97;5043547;28;20037;-55
2023/03/20 09:37:26;;;;;;;1.55;0.98;;;;;;;13.13;100.00;100891.00;5034902;28;20029;-55
2023/03/20 09:39:52;;;;;;;4.78;0.70;;;;;;;13.21;100.00;100890.81;5035066;28;20525;-54
2023/03/20 09:42:35;;;;;;;3.20;1.52;;;;;;;13.23;100.00;100883.47;5034383;28;20041;-53
2023/03/20 09:45:26;;;;;;;4.18;0.63;;;;;;;13.24;100.00;100882.47;5037928;28;20106;-54
2023/03/20 09:48:21;;;;;;;3.00;0.80;;;;;;;13.26;100.00;100879.59;5033375;28;20135;-54
2023/03/20 09:51:00;;;;;;;1.55;0.32;;;;;;;13.29;100.00;100881.88;5041539;28;20041;-57
2023/03/20 09:53:39;;;;;;;1.40;0.40;;;;;;;13.38;100.00;100883.34;5042586;28;20115;-54
2023/03/20 09:56:14;;;;;;;1.88;0.32;;;;;;;13.33;100.00;100887.66;5038619;28;20041;-54
2023/03/20 09:58:41;;;;;;;3.45;0.38;;;;;;;13.31;100.00;100893.97;5041744;28;20017;-56
2023/03/20 10:01:13;;;;;;;1.65;0.32;;;;;;;13.35;100.00;100894.41;5037585;28;20470;-55
2023/03/20 10:03:42;;;;;;;0.80;0.40;;;;;;;13.56;100.00;100884.66;5046229;28;20327;-60
2023/03/20 10:06:13;;;;;;;1.00;0.20;;;;;;;13.55;100.00;100883.81;5038746;28;20044;-55
2023/03/20 10:08:39;;;;;;;2.67;1.38;;;;;;;13.61;100.00;100893.69;5037241;28;20402;-53
2023/03/20 10:11:27;;;;;;;0.43;0.43;;;;;;;13.70;100.00;100878.31;5036865;28;20798;-54
2023/03/20 10:14:04;;;;;;;0.60;0.55;;;;;;;13.70;100.00;100880.97;5042805;28;20575;-55
2023/03/20 10:16:50;;;;;;;0.75;0.15;;;;;;;13.69;100.00;100874.84;5047153;28;20029;-56
2023/03/20 10:19:47;;;;;;;0.65;0.45;;;;;;;13.65;100.00;100880.75;5039628;28;20062;-56
2023/03/20 10:22:56;;;;;;;0.47;0.20;;;;;;;13.79;100.00;100879.78;5043353;28;20363;-57
2023/03/20 10:25:25;;;;;;;0.88;0.20;;;;;;;13.65;100.00;100880.75;5035141;28;20049;-55
2023/03/20 10:27:59;;;;;;;0.65;0.15;;;;;;;13.67;100.00;100882.19;5042644;28;20041;-56
2023/03/20 10:30:38;;;;;;;1.23;0.43;;;;;;;13.78;100.00;100882.63;5039971;28;20397;-52
2023/03/20 10:33:29;;;;;;;1.17;0.20;;;;;;;13.86;100.00;100883.28;5040726;28;20033;-53
2023/03/20 10:36:12;;;;;;;2.97;0.57;;;;;;;14.03;100.00;100878.38;5042178;28;20077;-55
2023/03/20 10:38:55;;;;;;;1.45;0.43;;;;;;;13.94;100.00;100880.41;5041155;28;20509;-56
2023/03/20 10:41:24;;;;;;;3.00;0.57;;;;;;;13.97;100.00;100884.53;5040532;28;20033;-57
2023/03/20 10:43:51;;;;;;;1.60;0.47;;;;;;;13.84;100.00;100881.84;5048953;28;20120;-59
2023/03/20 10:46:28;;;;;;;1.45;0.47;;;;;;;13.74;100.00;100884.91;5043781;28;20036;-58
2023/03/20 10:49:05;;;;;;;1.00;0.68;;;;;;;13.79;100.00;100885.13;5045163;28;20048;-54
2023/03/20 10:51:50;;;;;;;1.65;0.60;;;;;;;13.83;100.00;100891.66;5042146;28;20386;-55
2023/03/20 10:55:00;;;;;;;0.77;0.30;;;;;;;14.03;100.00;100891.69;5045367;28;20033;-55
2023/03/20 10:57:30;;;;;;;0.65;0.40;;;;;;;14.07;100.00;100884.94;5002754;28;20162;-56
2023/03/20 10:59:57;;;;;;;0.57;0.38;;;;;;;14.01;100.00;100872.41;5035306;28;20094;-58
2023/03/20 11:02:27;;;;;;;2.10;0.40;;;;;;;14.03;100.00;100875.69;5039630;28;20065;-57
2023/03/20 11:04:52;;;;;;;0.52;0.52;;;;;;;14.08;100.00;100885.75;5048606;28;20415;-57
2023/03/20 11:07:32;;;;;;;2.03;1.65;;;;;;;14.16;100.00;100874.88;5039272;28;21055;-57
2023/03/20 11:10:03;;;;;;;0.88;0.50;;;;;;;14.23;100.00;100880.22;5043477;28;20355;-54
2023/03/20 11:12:31;;;;;;;;;;;;;;;14.40;100.00;100870.78;5045093;28;20432;-56
2023/03/20 11:15:01;;;;;;;1.17;0.17;;;;;;;14.28;100.00;100875.09;5039277;28;19975;-56
2023/03/20 11:17:29;;;;;;;0.68;0.22;;;;;;;14.32;100.00;100874.47;5042452;28;20024;-56
2023/03/20 11:20:03;;;;;;;3.03;0.50;;;;;;;14.16;100.00;100874.88;5040337;28;20417;-62
2023/03/20 11:22:29;;;;;;;0.50;0.50;;;;;;;14.15;100.00;100862.59;5040671;28;20033;-56
2023/03/20 11:25:03;;;;;;;3.15;1.05;;;;;;;14.19;100.00;100867.28;5041246;28;20375;-56
2023/03/20 11:27:30;;;;;;;0.85;0.30;;;;;;;14.13;100.00;100870.78;5044862;28;20117;-57
2023/03/20 11:29:58;;;;;;;0.75;0.47;;;;;;;14.04;100.00;100861.34;5040597;28;20128;-57